Time;durP1;ratioP1;P1;durP2;ratioP2;P2;SDS_P1;SDS_P2;PMS_P1;PMS_P2;Temp;Humidity;BMP_temperature;BMP_pressure;BME280_temperature;BME280_humidity;BME280_pressure;Samples;Min_cycle;Max_cycle;Signal;HPM_P1;HPM_P2
2022/08/29 00:01:30;;;;;;;0.82;0.60;;;;;;;17.84;57.97;100998.09;5031889;28;20025;-69
2022/08/29 00:03:56;;;;;;;1.05;0.80;;;;;;;17.83;58.04;100991.75;5029834;28;20049;-69
2022/08/29 00:06:22;;;;;;;1.75;0.93;;;;;;;17.84;58.23;100998.09;5036427;28;20021;-70
2022/08/29 00:08:47;;;;;;;0.93;0.50;;;;;;;17.76;58.29;100985.78;5027134;28;20391;-70
2022/08/29 00:11:13;;;;;;;1.63;0.60;;;;;;;17.72;58.69;100995.78;5029517;28;20380;-70
2022/08/29 00:13:39;;;;;;;1.13;0.50;;;;;;;17.58;58.65;100995.72;5023224;28;20042;-70
2022/08/29 00:16:04;;;;;;;0.45;0.30;;;;;;;17.50;58.78;100994.44;5017958;28;20018;-70
2022/08/29 00:18:31;;;;;;;0.40;0.40;;;;;;;17.44;59.15;100990.13;5043417;28;20031;-70
2022/08/29 00:20:56;;;;;;;0.65;0.40;;;;;;;17.34;59.34;100990.28;5021371;28;20022;-69
2022/08/29 00:23:21;;;;;;;1.88;0.40;;;;;;;17.23;59.58;100990.41;5029953;28;20041;-71
2022/08/29 00:25:47;;;;;;;1.23;0.68;;;;;;;17.18;60.37;100987.72;5011200;28;20074;-70
2022/08/29 00:28:13;;;;;;;0.77;0.68;;;;;;;17.20;60.76;100977.19;5017618;28;20037;-69
2022/08/29 00:30:39;;;;;;;1.83;0.50;;;;;;;17.32;60.63;100981.44;5027155;28;20021;-69
2022/08/29 00:33:05;;;;;;;0.73;0.50;;;;;;;17.39;60.27;100981.91;5027736;28;20029;-70
2022/08/29 00:35:37;;;;;;;1.13;0.60;;;;;;;17.37;60.20;100975.84;5014325;28;20028;-70
2022/08/29 00:38:04;;;;;;;0.40;0.30;;;;;;;17.33;60.87;100972.03;5030254;28;20029;-70
2022/08/29 00:40:33;;;;;;;0.30;0.30;;;;;;;17.36;60.68;100976.97;5035928;28;20080;-69
2022/08/29 00:42:59;;;;;;;0.82;0.50;;;;;;;17.42;60.30;100978.53;5020706;28;20109;-72
2022/08/29 00:45:25;;;;;;;0.30;0.30;;;;;;;17.50;60.63;100985.34;5020127;28;20125;-69
2022/08/29 00:47:58;;;;;;;0.90;0.30;;;;;;;17.52;60.55;100972.88;5027517;28;20031;-69
2022/08/29 00:50:30;;;;;;;1.23;0.65;;;;;;;17.58;60.25;100973.59;5024577;28;20036;-70
2022/08/29 00:52:57;;;;;;;1.27;0.50;;;;;;;17.61;60.83;100973.84;5019148;28;20032;-69
2022/08/29 00:55:26;;;;;;;0.35;0.35;;;;;;;17.61;60.63;100973.84;5023996;28;20072;-69
2022/08/29 00:58:00;;;;;;;0.88;0.60;;;;;;;17.52;60.87;100975.66;5023648;28;20028;-70
2022/08/29 01:00:27;;;;;;;0.47;0.43;;;;;;;17.51;60.77;100982.28;5022505;28;20018;-70
2022/08/29 01:02:53;;;;;;;1.13;0.32;;;;;;;17.52;61.28;100975.66;5029854;28;20085;-69
2022/08/29 01:05:19;;;;;;;1.02;0.50;;;;;;;17.53;61.18;100985.56;5032473;28;20087;-71
2022/08/29 01:07:46;;;;;;;1.65;0.57;;;;;;;17.58;61.61;100974.44;5031316;28;20033;-69
2022/08/29 01:12:14;;;;;;;1.02;0.68;;;;;;;17.56;61.44;100970.31;5035437;28;20074;-70
2022/08/29 01:13:00;;;;;;;2.45;0.68;;;;;;;17.46;61.37;100976.81;5019339;28;20112;-70
2022/08/29 01:15:29;;;;;;;2.30;0.50;;;;;;;17.39;61.72;100981.91;5031031;28;20033;-69
2022/08/29 01:17:57;;;;;;;2.20;0.60;;;;;;;17.48;61.68;100985.66;5030583;28;20013;-69
2022/08/29 01:20:51;;;;;;;0.70;0.43;;;;;;;17.47;61.43;100983.19;5026240;28;20030;-70
2022/08/29 01:23:39;;;;;;;1.10;0.50;;;;;;;17.47;62.23;100983.19;5021135;28;20068;-70
2022/08/29 01:26:06;;;;;;;3.47;0.55;;;;;;;17.43;62.65;100977.41;5018555;28;20033;-71
2022/08/29 01:28:36;;;;;;;1.27;0.50;;;;;;;17.42;62.30;100987.66;5026700;28;20026;-70
2022/08/29 01:31:10;;;;;;;1.73;0.70;;;;;;;17.39;62.75;100979.13;5025858;28;20013;-69
2022/08/29 01:33:52;;;;;;;0.70;0.52;;;;;;;17.36;63.09;100985.25;5029322;28;20029;-70
2022/08/29 01:36:22;;;;;;;1.88;0.60;;;;;;;17.35;62.97;100980.88;5025186;28;20036;-70
2022/08/29 01:38:48;;;;;;;1.35;0.80;;;;;;;17.35;62.86;100983.63;5032006;28;20033;-70
2022/08/29 01:41:15;;;;;;;1.02;0.60;;;;;;;17.31;62.68;100988.13;5028872;28;20051;-70
2022/08/29 01:43:47;;;;;;;1.73;0.90;;;;;;;17.35;63.03;100987.22;5010274;28;20043;-72
2022/08/29 01:46:15;;;;;;;2.10;1.10;;;;;;;17.39;62.65;100990.19;5060635;28;20358;-70
2022/08/29 01:48:44;;;;;;;0.77;0.60;;;;;;;17.38;63.18;100988.56;5035592;28;20436;-71
2022/08/29 01:51:10;;;;;;;2.13;0.60;;;;;;;17.36;63.10;100994.41;5024801;28;20518;-69
2022/08/29 01:53:35;;;;;;;1.40;0.60;;;;;;;17.26;62.68;101006.41;5047256;28;20035;-69
2022/08/29 01:56:23;;;;;;;0.70;0.57;;;;;;;17.17;63.05;101002.66;5021594;28;20029;-69
2022/08/29 01:58:51;;;;;;;2.35;0.82;;;;;;;17.10;63.33;100996.69;5022744;28;20083;-70
2022/08/29 02:01:22;;;;;;;1.92;0.70;;;;;;;17.01;63.66;100995.66;5027349;28;20029;-69
2022/08/29 02:03:48;;;;;;;1.00;0.70;;;;;;;17.00;63.34;100994.03;5027931;28;20048;-69
2022/08/29 02:06:13;;;;;;;1.75;0.73;;;;;;;17.06;63.46;100995.63;5028200;28;20026;-70
2022/08/29 02:08:41;;;;;;;1.70;0.70;;;;;;;17.12;63.80;100994.44;5030981;28;20373;-71
2022/08/29 02:11:10;;;;;;;1.08;0.70;;;;;;;17.16;63.34;100998.25;5016612;28;20026;-70
2022/08/29 02:13:51;;;;;;;0.98;0.65;;;;;;;17.18;63.13;101003.47;5031222;28;20082;-70
2022/08/29 02:16:17;;;;;;;2.22;0.60;;;;;;;17.13;63.47;100996.09;5027401;28;20076;-69
2022/08/29 02:18:42;;;;;;;1.60;0.70;;;;;;;17.07;63.50;100998.09;5018032;28;20116;-70
2022/08/29 02:21:10;;;;;;;1.00;0.70;;;;;;;17.08;64.08;101015.47;5012369;28;20128;-71
2022/08/29 02:23:37;;;;;;;1.35;0.70;;;;;;;17.13;64.06;101007.13;5033527;28;20037;-68
2022/08/29 02:26:04;;;;;;;1.45;0.60;;;;;;;17.09;63.83;100995.03;5017619;28;20024;-69
2022/08/29 02:28:31;;;;;;;0.60;0.60;;;;;;;17.07;63.94;101000.03;5027840;28;20040;-67
2022/08/29 02:30:57;;;;;;;0.70;0.70;;;;;;;17.01;64.05;100998.44;5029675;28;20120;-70
2022/08/29 02:33:24;;;;;;;1.10;0.70;;;;;;;17.00;64.20;100997.63;5029809;28;20023;-70
2022/08/29 02:35:50;;;;;;;0.45;0.45;;;;;;;17.00;63.82;100991.28;5061268;28;20026;-69
2022/08/29 02:38:16;;;;;;;1.83;0.45;;;;;;;17.05;63.77;100993.97;5022913;28;20030;-70
2022/08/29 02:40:43;;;;;;;1.98;0.80;;;;;;;16.93;64.08;100981.41;5025606;28;20033;-68
2022/08/29 02:43:09;;;;;;;0.77;0.40;;;;;;;16.88;64.21;100995.28;5030712;28;20112;-68
2022/08/29 02:45:39;;;;;;;0.70;0.50;;;;;;;16.84;64.48;100994.19;5053730;28;20049;-71
2022/08/29 02:48:06;;;;;;;1.67;0.70;;;;;;;16.83;64.63;100994.50;5039528;28;20120;-70
2022/08/29 02:50:31;;;;;;;1.17;0.60;;;;;;;16.84;64.29;100988.66;5015360;28;20044;-73
2022/08/29 02:52:57;;;;;;;1.77;0.70;;;;;;;16.85;64.61;100995.84;5032425;28;20030;-71
2022/08/29 02:55:24;;;;;;;0.60;0.50;;;;;;;16.83;64.66;101002.78;5031621;28;20021;-70
2022/08/29 02:57:51;;;;;;;0.50;0.50;;;;;;;16.77;64.50;100999.25;5034891;28;20032;-71
2022/08/29 03:00:24;;;;;;;0.45;0.30;;;;;;;16.73;65.14;100998.19;5030548;28;20022;-69
2022/08/29 03:02:50;;;;;;;1.48;0.70;;;;;;;16.72;64.76;100985.50;5049539;28;20049;-69
2022/08/29 03:05:19;;;;;;;0.55;0.47;;;;;;;16.71;65.24;100989.38;5028024;28;20644;-69
2022/08/29 03:07:46;;;;;;;0.95;0.40;;;;;;;16.68;64.92;100996.31;5056530;28;20075;-70
2022/08/29 03:10:12;;;;;;;0.80;0.60;;;;;;;16.61;65.13;100989.50;5034969;28;20120;-68
2022/08/29 03:12:38;;;;;;;0.90;0.40;;;;;;;16.56;64.96;100990.38;5006263;28;20777;-69
2022/08/29 03:15:06;;;;;;;0.50;0.47;;;;;;;16.50;65.49;100992.38;5024325;28;20026;-69
2022/08/29 03:17:31;;;;;;;3.50;0.75;;;;;;;16.45;65.46;100983.31;5021008;28;20049;-70
2022/08/29 03:19:58;;;;;;;0.73;0.40;;;;;;;16.40;65.85;100987.75;5033817;28;20067;-69
2022/08/29 03:22:27;;;;;;;1.30;0.50;;;;;;;16.39;65.93;100977.03;5024303;28;20026;-68
2022/08/29 03:24:53;;;;;;;0.50;0.47;;;;;;;16.39;65.97;100988.06;5033469;28;20032;-69
2022/08/29 03:27:19;;;;;;;0.57;0.40;;;;;;;16.35;65.92;100992.50;5040359;28;20026;-70
2022/08/29 03:29:45;;;;;;;0.65;0.35;;;;;;;16.32;65.82;100993.09;5036850;28;20027;-70
2022/08/29 03:32:10;;;;;;;0.45;0.45;;;;;;;16.31;66.21;100997.81;5067469;28;20116;-70
2022/08/29 03:34:37;;;;;;;0.77;0.50;;;;;;;16.34;65.92;100996.38;5032196;28;20465;-70
2022/08/29 03:37:02;;;;;;;0.80;0.60;;;;;;;16.32;65.82;100998.63;5025635;28;20076;-71
2022/08/29 03:39:28;;;;;;;1.02;0.55;;;;;;;16.28;66.30;101003.06;5018030;28;20411;-69
2022/08/29 03:41:54;;;;;;;1.23;0.60;;;;;;;16.18;66.47;100993.78;5023674;28;20041;-71
2022/08/29 03:44:20;;;;;;;1.02;0.45;;;;;;;16.13;66.48;100993.81;5016555;28;20417;-70
2022/08/29 03:46:46;;;;;;;0.77;0.60;;;;;;;16.05;66.55;100995.25;5038709;28;20124;-68
2022/08/29 03:49:11;;;;;;;1.25;0.60;;;;;;;15.98;66.83;100993.97;5014639;28;20033;-69
2022/08/29 03:51:38;;;;;;;0.85;0.60;;;;;;;15.94;67.33;100981.84;5026962;28;20025;-70
2022/08/29 03:54:05;;;;;;;0.93;0.70;;;;;;;15.88;67.43;100979.13;5025493;28;20017;-70
2022/08/29 03:56:31;;;;;;;1.60;0.77;;;;;;;15.86;67.35;100973.09;5027773;28;20096;-71
2022/08/29 03:58:57;;;;;;;1.13;0.55;;;;;;;15.81;67.51;100972.28;5026122;28;20152;-71
2022/08/29 04:01:27;;;;;;;0.95;0.60;;;;;;;15.76;67.96;100981.41;5026642;28;20021;-70
2022/08/29 04:03:52;;;;;;;1.10;0.60;;;;;;;15.71;67.92;100978.69;5027089;28;20026;-70
2022/08/29 04:06:18;;;;;;;1.23;0.65;;;;;;;15.67;68.38;100983.13;5019290;28;20026;-70
2022/08/29 04:08:48;;;;;;;1.10;0.80;;;;;;;15.62;68.42;100983.16;5026754;28;20026;-70
2022/08/29 04:11:16;;;;;;;1.30;0.77;;;;;;;15.61;68.18;100985.09;5019321;28;20435;-69
2022/08/29 04:13:42;;;;;;;0.80;0.55;;;;;;;15.53;68.37;100972.72;5029472;28;20037;-69
2022/08/29 04:16:18;;;;;;;1.02;0.70;;;;;;;15.48;68.45;100980.25;5031482;28;20013;-69
2022/08/29 04:18:44;;;;;;;1.95;1.35;;;;;;;15.45;68.83;100976.13;5029134;28;20038;-69
2022/08/29 04:21:10;;;;;;;0.65;0.57;;;;;;;15.42;69.00;100982.19;5031816;28;20406;-69
2022/08/29 04:23:37;;;;;;;1.88;0.68;;;;;;;15.37;69.22;100973.94;5027515;28;20040;-69
2022/08/29 04:26:04;;;;;;;0.90;0.60;;;;;;;15.40;68.88;100981.63;5027696;28;20128;-68
2022/08/29 04:28:30;;;;;;;0.95;0.60;;;;;;;15.42;69.02;100979.44;5043412;28;20119;-70
2022/08/29 04:30:55;;;;;;;0.63;0.50;;;;;;;15.49;69.00;100977.19;5028337;28;20069;-70
2022/08/29 04:33:23;;;;;;;1.48;0.70;;;;;;;15.57;69.08;100983.22;5023945;28;20022;-70
2022/08/29 04:35:49;;;;;;;1.88;0.95;;;;;;;15.57;69.01;100978.50;5024484;28;20468;-70
2022/08/29 04:38:15;;;;;;;1.35;0.88;;;;;;;15.65;68.87;100977.06;5030460;28;20029;-68
2022/08/29 04:40:41;;;;;;;6.15;1.42;;;;;;;15.75;68.87;100971.47;5030326;28;20037;-70
2022/08/29 04:43:07;;;;;;;2.40;1.23;;;;;;;15.81;69.27;100984.16;5030504;28;20477;-69
2022/08/29 04:45:34;;;;;;;2.08;0.85;;;;;;;15.76;69.28;100975.06;5012049;28;20038;-69
2022/08/29 04:48:01;;;;;;;0.60;0.60;;;;;;;15.77;68.87;100977.56;5026554;28;20415;-73
2022/08/29 04:50:27;;;;;;;0.88;0.70;;;;;;;15.76;68.99;100983.34;5056585;28;20630;-68
2022/08/29 04:52:52;;;;;;;1.50;0.90;;;;;;;15.67;69.24;100983.94;5028044;28;20053;-70
2022/08/29 04:55:20;;;;;;;1.52;0.80;;;;;;;15.57;69.45;100991.47;5035288;28;20033;-69
2022/08/29 04:57:47;;;;;;;1.08;0.93;;;;;;;15.47;69.66;100995.13;5001417;28;20033;-73
2022/08/29 05:00:16;;;;;;;3.53;1.33;;;;;;;15.46;70.40;100994.31;5034410;28;20490;-71
2022/08/29 05:02:43;;;;;;;4.50;1.00;;;;;;;15.58;70.13;100998.63;5029013;28;20047;-71
2022/08/29 05:05:10;;;;;;;2.47;1.08;;;;;;;15.58;70.13;100987.59;5044088;28;20091;-71
2022/08/29 05:07:36;;;;;;;2.38;1.30;;;;;;;15.51;70.26;100991.50;5030581;28;20044;-70
2022/08/29 05:10:08;;;;;;;1.30;1.10;;;;;;;15.50;70.43;100995.34;5057376;28;20090;-72
2022/08/29 05:12:33;;;;;;;2.67;1.00;;;;;;;15.46;70.45;100997.06;5040151;28;20109;-71
2022/08/29 05:14:59;;;;;;;1.48;1.15;;;;;;;15.51;70.57;101008.03;5019341;28;20044;-69
2022/08/29 05:17:25;;;;;;;3.05;1.10;;;;;;;15.51;70.37;101001.72;5031673;28;20053;-71
2022/08/29 05:19:51;;;;;;;4.40;2.78;;;;;;;15.43;70.88;100994.03;5037812;28;20029;-71
2022/08/29 05:22:18;;;;;;;3.88;1.40;;;;;;;15.41;70.78;100997.06;5020280;28;20067;-69
2022/08/29 05:24:45;;;;;;;3.30;1.00;;;;;;;15.39;71.15;100999.31;5031947;28;20025;-72
2022/08/29 05:27:15;;;;;;;4.13;1.25;;;;;;;15.45;71.00;101003.66;5023479;28;20029;-72
2022/08/29 05:29:43;;;;;;;3.13;1.17;;;;;;;15.43;70.96;101008.63;5030486;28;20156;-69
2022/08/29 05:32:09;;;;;;;2.15;1.58;;;;;;;15.38;71.29;101007.84;5035215;28;21109;-72
2022/08/29 05:34:37;;;;;;;1.65;1.20;;;;;;;15.32;71.33;101009.81;5033408;28;20041;-69
2022/08/29 05:37:05;;;;;;;1.27;1.02;;;;;;;15.27;71.93;101018.09;5014463;28;20022;-72
2022/08/29 05:39:31;;;;;;;2.78;1.30;;;;;;;15.27;71.78;101012.59;5028686;28;20029;-72
2022/08/29 05:41:58;;;;;;;2.75;1.20;;;;;;;15.24;71.86;101018.66;5020066;28;20028;-71
2022/08/29 05:44:23;;;;;;;2.03;1.13;;;;;;;15.19;71.79;101023.09;5003090;28;20036;-72
2022/08/29 05:46:49;;;;;;;2.15;1.00;;;;;;;15.29;71.95;101029.69;5014810;28;20399;-71
2022/08/29 05:49:15;;;;;;;3.05;1.05;;;;;;;15.27;71.59;101029.13;5031534;28;20040;-69
2022/08/29 05:51:41;;;;;;;4.13;1.40;;;;;;;15.36;71.90;101027.41;5030076;28;20031;-68
2022/08/29 05:54:07;;;;;;;2.50;1.30;;;;;;;15.49;71.36;101034.22;5036766;28;20395;-71
2022/08/29 05:56:33;;;;;;;4.95;1.60;;;;;;;15.51;71.49;101041.13;5031959;28;20029;-71
2022/08/29 05:58:59;;;;;;;4.57;1.20;;;;;;;15.58;71.33;101034.47;5037213;28;20120;-69
2022/08/29 06:01:28;;;;;;;1.75;0.90;;;;;;;15.64;71.38;101038.84;5012518;28;20038;-70
2022/08/29 06:03:55;;;;;;;3.75;1.13;;;;;;;15.62;71.61;101035.53;5026684;28;20026;-70
2022/08/29 06:06:26;;;;;;;2.95;1.10;;;;;;;15.58;71.74;101040.81;5018952;28;20049;-67
2022/08/29 06:08:52;;;;;;;3.70;1.30;;;;;;;15.58;71.82;101040.81;5031781;28;20151;-69
2022/08/29 06:11:20;;;;;;;4.70;1.00;;;;;;;15.64;71.50;101049.88;5033415;28;20044;-70
2022/08/29 06:13:46;;;;;;;1.67;0.90;;;;;;;15.74;71.51;101048.97;5043560;28;20038;-70
2022/08/29 06:16:14;;;;;;;3.08;1.10;;;;;;;15.81;71.20;101050.34;5028679;28;20024;-72
2022/08/29 06:18:40;;;;;;;1.52;0.90;;;;;;;15.84;71.43;101049.78;5031403;28;20044;-69
2022/08/29 06:21:06;;;;;;;2.97;0.90;;;;;;;15.96;71.40;101054.09;5054637;28;20026;-70
2022/08/29 06:23:33;;;;;;;4.47;1.38;;;;;;;16.06;70.81;101051.25;5035759;28;20044;-69
2022/08/29 06:26:00;;;;;;;2.40;0.82;;;;;;;16.16;70.80;101050.34;5017757;28;20026;-74
2022/08/29 06:28:28;;;;;;;2.08;1.00;;;;;;;16.25;70.35;101042.28;5070050;28;20029;-77
2022/08/29 06:30:54;;;;;;;1.10;0.80;;;;;;;16.35;70.29;101050.47;5042775;28;20686;-74
2022/08/29 06:33:20;;;;;;;1.58;0.90;;;;;;;16.32;70.16;101037.25;5037423;28;20138;-70
2022/08/29 06:35:46;;;;;;;0.80;0.80;;;;;;;16.45;70.30;101041.28;5029254;28;20175;-72
2022/08/29 06:38:11;;;;;;;2.60;1.00;;;;;;;16.50;69.87;101039.28;5050186;28;20029;-71
2022/08/29 06:40:40;;;;;;;2.75;0.90;;;;;;;16.68;69.68;101043.25;5035322;28;20126;-71
2022/08/29 06:43:05;;;;;;;1.23;0.75;;;;;;;16.77;69.48;101043.44;5018585;28;20080;-71
2022/08/29 06:45:31;;;;;;;0.82;0.60;;;;;;;16.84;68.98;101035.63;5035729;28;20087;-72
2022/08/29 06:47:56;;;;;;;1.10;0.82;;;;;;;16.77;69.19;101015.81;5035036;28;20039;-73
2022/08/29 06:50:24;;;;;;;1.00;0.75;;;;;;;16.96;69.21;101035.25;5020242;28;20441;-73
2022/08/29 06:52:50;;;;;;;1.48;0.60;;;;;;;17.03;69.02;101035.72;5038574;28;20041;-72
2022/08/29 06:55:15;;;;;;;0.63;0.57;;;;;;;17.14;68.25;101052.97;5042617;28;20034;-72
2022/08/29 06:57:44;;;;;;;1.33;0.65;;;;;;;17.22;68.23;101043.22;5037353;28;20114;-72
2022/08/29 07:00:14;;;;;;;0.98;0.70;;;;;;;17.29;68.04;101043.69;5034083;28;20045;-72
2022/08/29 07:02:40;;;;;;;2.22;0.85;;;;;;;17.42;67.85;101047.63;5030104;28;20037;-73
2022/08/29 07:05:06;;;;;;;2.28;0.90;;;;;;;17.46;67.63;101040.41;5056496;28;20026;-71
2022/08/29 07:07:33;;;;;;;2.65;1.13;;;;;;;17.58;67.33;101043.56;5013997;28;20034;-72
2022/08/29 07:10:02;;;;;;;1.35;0.80;;;;;;;17.58;67.82;101035.28;5034376;28;20887;-72
2022/08/29 07:12:28;;;;;;;1.55;1.00;;;;;;;17.61;67.37;101034.66;5034119;28;20498;-72
2022/08/29 07:14:53;;;;;;;1.63;0.88;;;;;;;17.79;67.70;101034.97;5027449;28;20056;-71
2022/08/29 07:17:19;;;;;;;1.63;0.75;;;;;;;17.82;67.15;101034.38;5033947;28;20021;-69
2022/08/29 07:19:45;;;;;;;1.58;0.75;;;;;;;17.85;67.17;101039.28;5015749;28;20033;-69
2022/08/29 07:22:10;;;;;;;0.68;0.60;;;;;;;17.91;67.55;101038.13;5021829;28;20495;-69
2022/08/29 07:24:36;;;;;;;1.90;0.80;;;;;;;18.02;66.51;101032.41;5033940;28;20071;-69
2022/08/29 07:27:01;;;;;;;1.85;0.70;;;;;;;18.13;67.22;101044.97;5033396;28;20025;-70
2022/08/29 07:29:27;;;;;;;1.55;0.80;;;;;;;18.23;66.63;101033.72;5033339;28;20539;-69
2022/08/29 07:31:52;;;;;;;1.08;0.70;;;;;;;18.41;66.32;101034.81;5031688;28;20032;-70
2022/08/29 07:34:19;;;;;;;1.75;0.70;;;;;;;18.53;65.73;101036.25;5040876;28;20056;-69
2022/08/29 07:36:45;;;;;;;0.80;0.65;;;;;;;18.57;65.60;101035.34;5027336;28;20022;-68
2022/08/29 07:39:14;;;;;;;1.08;0.63;;;;;;;18.60;64.91;101037.53;5024368;28;20033;-68
2022/08/29 07:41:41;;;;;;;3.05;0.70;;;;;;;18.74;65.02;101054.13;5025014;28;20255;-67
2022/08/29 07:44:07;;;;;;;4.07;1.10;;;;;;;18.82;64.86;101058.16;5018991;28;20022;-68
2022/08/29 07:46:34;;;;;;;0.93;0.70;;;;;;;18.87;65.03;101038.69;5015931;28;20530;-70
2022/08/29 07:48:59;;;;;;;3.88;0.70;;;;;;;18.95;64.63;101049.06;5020838;28;20075;-69
2022/08/29 07:51:25;;;;;;;1.90;0.70;;;;;;;19.00;64.52;101046.19;5032159;28;20025;-70
2022/08/29 07:53:52;;;;;;;2.97;0.65;;;;;;;19.11;64.05;101046.78;5031147;28;20025;-72
2022/08/29 07:56:21;;;;;;;4.25;1.13;;;;;;;19.17;64.09;101050.28;5048176;28;20812;-71
2022/08/29 07:58:47;;;;;;;0.52;0.50;;;;;;;19.27;63.79;101043.69;5030844;28;20041;-74
2022/08/29 08:01:16;;;;;;;2.78;0.50;;;;;;;19.27;63.03;101038.16;5026176;28;20135;-72
2022/08/29 08:03:41;;;;;;;1.67;0.70;;;;;;;19.29;63.12;101028.41;5030705;28;20037;-73
2022/08/29 08:06:08;;;;;;;1.38;0.57;;;;;;;19.38;62.71;101044.28;5014492;28;20055;-68
2022/08/29 08:08:34;;;;;;;1.85;0.75;;;;;;;19.50;62.43;101048.19;5021913;28;20026;-71
2022/08/29 08:11:03;;;;;;;2.03;0.68;;;;;;;19.75;61.83;101047.94;5029432;28;20044;-72
2022/08/29 08:13:28;;;;;;;0.45;0.40;;;;;;;19.90;61.25;101039.25;5025838;28;20065;-70
2022/08/29 08:15:54;;;;;;;1.08;0.70;;;;;;;20.04;60.82;101048.34;5011298;28;20118;-71
2022/08/29 08:18:20;;;;;;;4.22;0.50;;;;;;;20.14;60.71;101043.69;5017594;28;20029;-70
2022/08/29 08:20:47;;;;;;;3.35;0.70;;;;;;;20.26;60.62;101046.72;4997964;28;20422;-71
2022/08/29 08:23:14;;;;;;;1.55;0.80;;;;;;;20.55;59.74;101043.44;5032379;28;20025;-67
2022/08/29 08:25:40;;;;;;;1.70;0.80;;;;;;;21.15;57.65;101043.25;5031917;28;20454;-70
2022/08/29 08:28:08;;;;;;;1.20;0.60;;;;;;;22.94;51.46;101041.31;5021880;28;20120;-71
2022/08/29 08:30:33;;;;;;;2.28;0.60;;;;;;;25.20;45.53;101043.25;5019842;28;20503;-69
2022/08/29 08:33:02;;;;;;;0.90;0.52;;;;;;;27.38;41.01;101042.41;5058123;28;20033;-69
2022/08/29 08:35:27;;;;;;;1.40;0.90;;;;;;;29.30;36.57;101054.13;5021355;28;20065;-68
2022/08/29 08:37:52;;;;;;;2.33;0.70;;;;;;;30.34;33.71;101059.50;5020705;28;20064;-71
2022/08/29 08:40:26;;;;;;;0.50;0.50;;;;;;;31.07;32.74;101050.53;5040619;28;20392;-69
2022/08/29 08:42:57;;;;;;;1.17;0.63;;;;;;;32.40;30.83;101065.31;5019364;28;20033;-70
2022/08/29 08:45:41;;;;;;;2.75;0.70;;;;;;;33.35;28.91;101069.84;5021321;28;20046;-70
2022/08/29 08:48:06;;;;;;;;;;;;;;;34.58;27.05;101065.28;5055961;28;20029;-69
2022/08/29 08:50:43;;;;;;;3.58;0.68;;;;;;;35.42;26.16;101062.53;5048513;28;19913;-70
2022/08/29 08:53:13;;;;;;;1.25;0.70;;;;;;;36.11;25.25;101076.75;5020185;28;20021;-69
2022/08/29 08:55:52;;;;;;;0.55;0.50;;;;;;;37.22;24.75;101071.34;5027308;28;20356;-71
2022/08/29 08:58:22;;;;;;;1.27;0.60;;;;;;;38.38;23.44;101073.47;5022575;28;20052;-71
2022/08/29 09:00:57;;;;;;;1.95;0.60;;;;;;;37.95;22.79;101059.34;5024717;28;20057;-71
2022/08/29 09:03:40;;;;;;;2.15;0.60;;;;;;;35.01;25.70;101063.31;5022380;28;20119;-67
2022/08/29 09:06:06;;;;;;;1.08;0.47;;;;;;;33.23;27.12;101069.03;5017458;28;20056;-71
2022/08/29 09:08:51;;;;;;;1.83;0.57;;;;;;;32.44;28.41;101062.53;5019466;28;20053;-71
2022/08/29 09:11:45;;;;;;;3.70;0.77;;;;;;;34.11;26.23;101061.88;5005737;23;20082;-74
2022/08/29 09:14:32;;;;;;;1.02;0.70;;;;;;;36.63;22.93;101067.84;4990594;28;20360;-73
2022/08/29 09:16:59;;;;;;;3.17;0.80;;;;;;;38.69;21.01;101076.03;4987528;28;20116;-73
2022/08/29 09:19:25;;;;;;;2.65;0.70;;;;;;;39.93;19.37;101075.13;4989178;28;20030;-76
2022/08/29 09:21:57;;;;;;;0.85;0.45;;;;;;;39.86;19.45;101066.75;4987163;28;20050;-74
2022/08/29 09:24:35;;;;;;;1.98;0.70;;;;;;;40.37;19.02;101068.88;4986325;28;20077;-73
2022/08/29 09:27:00;;;;;;;1.50;0.60;;;;;;;41.92;17.83;101062.69;4987632;28;20058;-73
2022/08/29 09:29:29;;;;;;;1.65;0.80;;;;;;;42.60;16.46;101064.91;4982775;28;20069;-73
2022/08/29 09:32:13;;;;;;;1.05;0.50;;;;;;;42.60;17.26;101064.91;4987676;28;20113;-76
2022/08/29 09:34:45;;;;;;;;;;;;;;;43.99;16.70;101067.84;4982251;28;20026;-73
2022/08/29 09:37:26;;;;;;;2.72;0.60;;;;;;;44.50;14.99;101061.22;4991321;28;20434;-74
2022/08/29 09:40:02;;;;;;;2.42;0.60;;;;;;;44.75;14.33;101059.19;5027637;22;20076;-72
2022/08/29 09:42:31;;;;;;;3.13;0.63;;;;;;;44.34;14.72;101050.13;5012509;28;20435;-75
2022/08/29 09:45:05;;;;;;;1.15;0.63;;;;;;;45.27;13.54;101048.19;5014456;28;20472;-73
2022/08/29 09:47:32;;;;;;;1.10;0.50;;;;;;;45.68;13.60;101046.84;5014604;28;20026;-72
2022/08/29 09:50:12;;;;;;;1.42;0.40;;;;;;;46.40;12.89;101048.59;5013690;28;20021;-74
2022/08/29 09:52:50;;;;;;;0.85;0.55;;;;;;;46.71;12.62;101050.06;5013501;28;20026;-72
2022/08/29 09:55:43;;;;;;;2.15;0.50;;;;;;;46.99;12.64;101047.56;5012061;28;20040;-75
2022/08/29 09:58:14;;;;;;;1.50;0.55;;;;;;;47.59;12.33;101042.13;5008454;28;20044;-73
2022/08/29 10:00:56;;;;;;;1.20;0.60;;;;;;;46.66;12.44;101042.91;5014037;28;20036;-74
2022/08/29 10:03:23;;;;;;;2.20;0.68;;;;;;;43.58;14.08;101040.06;5014339;28;20030;-74
2022/08/29 10:06:03;;;;;;;1.15;0.70;;;;;;;39.90;16.45;101043.75;5015152;28;20026;-73
2022/08/29 10:08:35;;;;;;;0.88;0.65;;;;;;;37.65;18.67;101036.31;5013276;28;20071;-73
2022/08/29 10:11:32;;;;;;;1.92;0.43;;;;;;;36.34;20.62;101030.47;5011985;28;20021;-73
2022/08/29 10:14:05;;;;;;;1.00;0.40;;;;;;;38.05;18.77;101027.69;4977791;28;20085;-71
2022/08/29 10:16:37;;;;;;;0.80;0.50;;;;;;;35.97;20.33;101027.31;5013297;28;20033;-74
2022/08/29 10:19:11;;;;;;;0.43;0.32;;;;;;;37.64;20.00;101028.19;5011753;28;20072;-73
2022/08/29 10:21:48;;;;;;;0.77;0.40;;;;;;;39.01;18.14;101030.72;5007502;28;20026;-70
2022/08/29 10:24:34;;;;;;;0.65;0.38;;;;;;;40.59;16.80;101022.38;5012628;28;20030;-73
2022/08/29 10:27:12;;;;;;;0.38;0.32;;;;;;;43.26;14.91;101029.25;5012297;28;20034;-74
2022/08/29 10:29:37;;;;;;;1.27;0.55;;;;;;;44.73;13.50;101027.13;5011377;28;20026;-76
2022/08/29 10:32:15;;;;;;;3.13;0.60;;;;;;;45.68;13.03;101024.56;5015110;28;20042;-71
2022/08/29 10:34:58;;;;;;;2.10;0.63;;;;;;;46.18;12.36;101020.91;5013768;28;20409;-72
2022/08/29 10:37:41;;;;;;;0.50;0.50;;;;;;;47.74;11.40;101035.44;5020073;28;20087;-72
2022/08/29 10:40:23;;;;;;;0.85;0.43;;;;;;;45.17;12.26;101020.72;5001413;28;20299;-74
2022/08/29 10:42:54;;;;;;;0.40;0.40;;;;;;;40.71;14.74;101018.66;5000492;28;20032;-73
2022/08/29 10:45:37;;;;;;;0.90;0.40;;;;;;;37.48;17.73;101012.59;5017262;28;20031;-72
2022/08/29 10:48:18;;;;;;;0.57;0.30;;;;;;;39.40;16.89;101009.63;5024235;28;20035;-74
2022/08/29 10:51:05;;;;;;;1.63;0.60;;;;;;;42.16;15.03;101012.06;5008718;28;20068;-73
2022/08/29 10:53:44;;;;;;;0.75;0.70;;;;;;;44.40;12.86;101004.91;5006162;28;20029;-73
2022/08/29 10:56:38;;;;;;;9.32;1.65;;;;;;;42.93;14.28;101003.97;5008243;28;20062;-73
2022/08/29 10:59:17;;;;;;;1.95;0.50;;;;;;;46.59;11.63;101012.31;5016340;28;20030;-72
2022/08/29 11:01:56;;;;;;;1.05;0.60;;;;;;;49.62;9.51;101006.81;5016110;28;20030;-72
2022/08/29 11:04:30;;;;;;;1.45;0.75;;;;;;;51.13;8.72;101001.09;5016493;28;20415;-72
2022/08/29 11:07:21;;;;;;;0.50;0.50;;;;;;;53.03;8.25;101006.06;5014695;28;20747;-73
2022/08/29 11:09:56;;;;;;;2.70;0.77;;;;;;;53.71;7.29;101004.97;5009754;28;20033;-74
2022/08/29 11:12:40;;;;;;;0.88;0.60;;;;;;;54.35;6.95;101003.25;5015393;28;20079;-74
2022/08/29 11:15:19;;;;;;;1.08;0.60;;;;;;;51.92;7.43;101004.72;5015398;28;20017;-73
2022/08/29 11:17:54;;;;;;;1.25;0.75;;;;;;;50.03;9.13;100990.94;5014302;28;20099;-73
2022/08/29 11:20:25;;;;;;;1.10;0.68;;;;;;;47.08;9.63;100997.41;5008235;28;20101;-73
2022/08/29 11:22:56;;;;;;;3.53;0.60;;;;;;;41.92;13.03;100983.09;5014548;28;20025;-73
2022/08/29 11:25:22;;;;;;;0.93;0.60;;;;;;;41.55;14.29;100970.59;5014791;28;20072;-72
2022/08/29 11:28:09;;;;;;;1.85;0.50;;;;;;;46.41;11.06;100981.59;5029180;28;20062;-73
2022/08/29 11:31:10;;;;;;;0.73;0.52;;;;;;;51.53;8.64;100982.53;5003666;28;20365;-73
2022/08/29 11:34:01;;;;;;;2.22;0.60;;;;;;;52.51;7.46;100994.22;5004053;28;20037;-72
2022/08/29 11:36:29;;;;;;;0.90;0.60;;;;;;;54.43;6.85;100986.59;5014505;28;20069;-73
2022/08/29 11:39:18;;;;;;;0.68;0.50;;;;;;;56.54;5.85;100986.50;5014634;28;20505;-71